< < Back
Terminal Aerodrome Forecast


Current Version              Previous Versions:   1  2  3  4  5  6  7  8  9  

Terminal Aerodrome Forecast

756
FTUS42 KTAE 231900 AAB
TAFTLH
TAF AMD
KTLH 231933Z 2320/2418 16010G18KT 2SM BR OVC003
     FM232000 17012G18KT 2SM -TSRA BR BKN004 OVC015CB
      TEMPO 2321/2323 VRB20G30KT 2SM +TSRA OVC020CB
     FM240200 19010KT 4SM BR OVC003
     FM241500 26008KT P6SM BKN035=



Latest METAR

573
SAUS80 KWBC 240400 RRB
MTRTLH
METAR KTLH 240353Z 14003KT 10SM FEW004 OVC030 18/17 A2987 RMK AO2 SLP109
T01830167 $


USA.gov is the U.S. government's official web portal to all federal, state and local government web resources and services.